Time;durP1;ratioP1;P1;durP2;ratioP2;P2;SDS_P1;SDS_P2;PMS_P1;PMS_P2;Temp;Humidity;BMP_temperature;BMP_pressure;BME280_temperature;BME280_humidity;BME280_pressure;Samples;Min_cycle;Max_cycle;Signal;HPM_P1;HPM_P2
2024/03/19 00:01:39;;;;;;;33.00;15.38;;;7.50;99.90;;;;;;5075782;28;20033;-62
2024/03/19 00:04:07;;;;;;;35.72;16.15;;;7.40;99.90;;;;;;5077020;28;20078;-63
2024/03/19 00:06:33;;;;;;;37.45;15.20;;;7.40;99.90;;;;;;5081877;28;20016;-63
2024/03/19 00:08:59;;;;;;;38.13;15.00;;;7.50;99.90;;;;;;5081985;28;20914;-62
2024/03/19 00:11:25;;;;;;;40.83;15.43;;;7.40;99.90;;;;;;5077174;28;20035;-62
2024/03/19 00:13:50;;;;;;;38.97;15.27;;;7.40;99.90;;;;;;5081010;28;20492;-63
2024/03/19 00:16:24;;;;;;;36.90;15.20;;;7.40;99.90;;;;;;5014454;27;20874;-63
2024/03/19 00:18:50;;;;;;;35.70;14.05;;;7.40;99.90;;;;;;4994429;28;20030;-63
2024/03/19 00:21:15;;;;;;;43.40;15.98;;;7.50;99.90;;;;;;5006734;28;20109;-63
2024/03/19 00:23:41;;;;;;;38.35;15.23;;;7.50;99.90;;;;;;4998599;28;20034;-63
2024/03/19 00:26:06;;;;;;;37.08;15.02;;;7.50;99.90;;;;;;4998710;28;20057;-63
2024/03/19 00:28:33;;;;;;;40.60;16.10;;;7.50;99.90;;;;;;4999149;28;20022;-63
2024/03/19 00:30:59;;;;;;;36.63;14.98;;;7.60;99.90;;;;;;4999240;28;20165;-63
2024/03/19 00:33:26;;;;;;;37.08;15.02;;;7.70;99.90;;;;;;4996253;28;20496;-63
2024/03/19 00:35:52;;;;;;;37.03;14.73;;;7.80;99.90;;;;;;5000299;28;20083;-63
2024/03/19 00:38:19;;;;;;;35.58;14.60;;;7.80;99.90;;;;;;4997267;28;20026;-62
2024/03/19 00:40:45;;;;;;;33.03;14.00;;;7.80;99.90;;;;;;4994545;28;20043;-62
2024/03/19 00:43:11;;;;;;;35.78;14.80;;;7.90;99.90;;;;;;4997415;28;20064;-62
2024/03/19 00:45:36;;;;;;;33.20;13.85;;;7.90;99.90;;;;;;5000081;28;20060;-62
2024/03/19 00:48:02;;;;;;;35.92;13.70;;;7.90;99.90;;;;;;4997181;28;20058;-62
2024/03/19 00:50:27;;;;;;;32.70;13.88;;;7.90;99.90;;;;;;5001357;28;20025;-63
2024/03/19 00:52:53;;;;;;;33.50;13.50;;;8.00;99.90;;;;;;5000391;28;20060;-63
2024/03/19 00:55:19;;;;;;;31.52;13.65;;;8.00;99.90;;;;;;4998088;28;20026;-62
2024/03/19 00:57:45;;;;;;;34.00;13.68;;;8.10;99.90;;;;;;4999534;28;20050;-63
2024/03/19 01:00:11;;;;;;;28.63;12.95;;;8.00;99.90;;;;;;4997429;28;20019;-62
2024/03/19 01:02:44;;;;;;;31.33;12.93;;;8.00;99.90;;;;;;5000320;28;20030;-62
2024/03/19 01:05:11;;;;;;;29.65;12.02;;;8.00;99.90;;;;;;4999281;28;20030;-62
2024/03/19 01:07:44;;;;;;;31.80;13.13;;;8.00;99.90;;;;;;5000057;28;20049;-62
2024/03/19 01:10:11;;;;;;;32.85;14.18;;;7.90;99.90;;;;;;4996833;28;20481;-62
2024/03/19 01:12:38;;;;;;;31.58;13.35;;;7.90;99.90;;;;;;5002574;28;20022;-61
2024/03/19 01:15:05;;;;;;;32.92;13.98;;;7.90;99.90;;;;;;4999432;28;20508;-61
2024/03/19 01:17:31;;;;;;;32.42;13.07;;;7.90;99.90;;;;;;4999033;28;20026;-61
2024/03/19 01:19:57;;;;;;;32.53;13.50;;;8.00;99.90;;;;;;4998101;28;20400;-61
2024/03/19 01:22:23;;;;;;;32.75;13.25;;;7.90;99.90;;;;;;5000859;28;20026;-61
2024/03/19 01:24:48;;;;;;;30.48;13.40;;;7.90;99.90;;;;;;5017158;28;20167;-61
2024/03/19 01:27:14;;;;;;;35.22;14.20;;;7.90;99.90;;;;;;4982697;28;20027;-61
2024/03/19 01:29:40;;;;;;;31.08;13.20;;;7.90;99.90;;;;;;4984094;28;20025;-61
2024/03/19 01:32:06;;;;;;;28.00;12.80;;;7.90;99.90;;;;;;4981043;28;20585;-61
2024/03/19 01:34:31;;;;;;;36.17;13.35;;;7.90;99.90;;;;;;4983243;28;20034;-61
2024/03/19 01:36:57;;;;;;;31.92;13.32;;;7.80;99.90;;;;;;4985581;28;20035;-60
2024/03/19 01:39:22;;;;;;;34.65;12.98;;;7.70;99.90;;;;;;4982375;28;20030;-61
2024/03/19 01:41:54;;;;;;;32.95;13.68;;;7.70;99.90;;;;;;4983330;28;20093;-61
2024/03/19 01:44:21;;;;;;;35.03;13.85;;;7.60;99.90;;;;;;4981907;28;20043;-61
2024/03/19 01:46:47;;;;;;;37.83;14.05;;;7.50;99.90;;;;;;4982283;28;20105;-61
2024/03/19 01:49:18;;;;;;;33.60;13.23;;;7.50;99.90;;;;;;4990393;28;20030;-61
2024/03/19 01:51:43;;;;;;;36.80;13.85;;;7.40;99.90;;;;;;4981389;28;20030;-61
2024/03/19 01:54:10;;;;;;;37.47;15.05;;;7.40;99.90;;;;;;4981254;28;20111;-61
2024/03/19 01:56:37;;;;;;;32.92;12.60;;;7.40;99.90;;;;;;4982191;28;20049;-61
2024/03/19 01:59:03;;;;;;;31.88;13.00;;;7.30;99.90;;;;;;4984344;28;20069;-61
2024/03/19 02:01:29;;;;;;;31.77;14.10;;;7.30;99.90;;;;;;4987211;28;20034;-61
2024/03/19 02:03:54;;;;;;;33.72;14.23;;;7.30;99.90;;;;;;4985537;28;20026;-61
2024/03/19 02:06:20;;;;;;;34.65;14.00;;;7.30;99.90;;;;;;4978727;28;20109;-61
2024/03/19 02:08:58;;;;;;;32.58;12.57;;;7.30;99.90;;;;;;4986429;28;20034;-61
2024/03/19 02:11:24;;;;;;;35.60;13.75;;;7.30;99.90;;;;;;4985626;28;20034;-61
2024/03/19 02:13:50;;;;;;;35.42;13.93;;;7.30;99.90;;;;;;4979033;28;20037;-62
2024/03/19 02:16:16;;;;;;;34.35;13.23;;;7.30;99.90;;;;;;4980901;28;20134;-61
2024/03/19 02:18:41;;;;;;;35.63;12.45;;;7.40;99.90;;;;;;4985544;28;20023;-61
2024/03/19 02:21:07;;;;;;;32.67;13.15;;;7.50;99.90;;;;;;4991418;28;20027;-62
2024/03/19 02:23:32;;;;;;;36.55;13.10;;;7.50;99.90;;;;;;4985480;28;20022;-62
2024/03/19 02:25:58;;;;;;;30.48;11.73;;;7.60;99.90;;;;;;4981048;28;20022;-60
2024/03/19 02:28:23;;;;;;;28.63;12.13;;;7.70;99.90;;;;;;4988997;28;20030;-63
2024/03/19 02:30:49;;;;;;;31.08;12.43;;;7.80;99.90;;;;;;4987624;28;20035;-63
2024/03/19 02:33:15;;;;;;;29.92;12.50;;;7.90;99.90;;;;;;4983669;28;20038;-63
2024/03/19 02:35:40;;;;;;;31.42;13.05;;;8.00;99.90;;;;;;4988620;28;20059;-62
2024/03/19 02:38:06;;;;;;;32.30;12.85;;;8.00;99.90;;;;;;4982590;28;20027;-61
2024/03/19 02:40:31;;;;;;;33.10;12.57;;;8.10;99.90;;;;;;4980841;28;20031;-62
2024/03/19 02:42:57;;;;;;;31.02;12.88;;;8.10;99.90;;;;;;4984660;28;20019;-62
2024/03/19 02:45:23;;;;;;;30.10;12.18;;;8.10;99.90;;;;;;4984635;28;20410;-62
2024/03/19 02:47:49;;;;;;;31.02;12.15;;;8.10;99.90;;;;;;4980632;28;20019;-62
2024/03/19 02:50:15;;;;;;;33.20;11.93;;;8.00;99.90;;;;;;4987938;28;20145;-62
2024/03/19 02:52:40;;;;;;;26.77;11.43;;;8.00;99.90;;;;;;4979769;28;20042;-62
2024/03/19 02:55:06;;;;;;;29.05;12.30;;;8.00;99.90;;;;;;4980947;28;20031;-61
2024/03/19 02:57:32;;;;;;;32.75;11.45;;;8.00;99.90;;;;;;4980126;28;20075;-62
2024/03/19 02:59:57;;;;;;;30.75;11.70;;;8.00;99.90;;;;;;4981792;28;20030;-60
2024/03/19 03:02:23;;;;;;;25.98;11.60;;;8.00;99.90;;;;;;4982265;28;20022;-60
2024/03/19 03:04:49;;;;;;;33.22;11.80;;;8.00;99.90;;;;;;4984193;28;20446;-60
2024/03/19 03:07:15;;;;;;;34.70;12.05;;;8.00;99.90;;;;;;4979444;28;20105;-60
2024/03/19 03:09:40;;;;;;;30.00;12.50;;;8.00;99.90;;;;;;4983640;28;20026;-60
2024/03/19 03:12:06;;;;;;;36.65;13.18;;;8.00;99.90;;;;;;4981537;28;20050;-60
2024/03/19 03:14:31;;;;;;;32.47;13.07;;;8.00;99.90;;;;;;4981229;28;20104;-60
2024/03/19 03:16:57;;;;;;;34.10;12.88;;;7.90;99.90;;;;;;4980121;28;20128;-60
2024/03/19 03:19:23;;;;;;;30.92;12.85;;;8.00;99.90;;;;;;4982522;28;20018;-60
2024/03/19 03:21:48;;;;;;;37.78;13.38;;;7.90;99.90;;;;;;4979839;28;20926;-60
2024/03/19 03:24:15;;;;;;;24.65;10.00;;;7.80;99.90;;;;;;4980473;28;20370;-60
2024/03/19 03:26:41;;;;;;;36.58;13.10;;;7.90;99.90;;;;;;4979340;28;20047;-60
2024/03/19 03:29:06;;;;;;;38.13;13.23;;;7.90;99.90;;;;;;4980619;28;20402;-60
2024/03/19 03:31:33;;;;;;;32.42;12.75;;;7.90;99.90;;;;;;4983512;28;20068;-60
2024/03/19 03:33:58;;;;;;;30.23;12.77;;;7.90;99.90;;;;;;4980279;28;20019;-60
2024/03/19 03:36:24;;;;;;;33.47;12.30;;;8.00;99.90;;;;;;4987643;28;20049;-61
2024/03/19 03:38:50;;;;;;;29.33;12.55;;;8.00;99.90;;;;;;4978882;28;20038;-60
2024/03/19 03:41:15;;;;;;;39.58;12.18;;;8.00;99.90;;;;;;4979006;28;20038;-62
2024/03/19 03:43:41;;;;;;;33.58;12.27;;;8.10;99.90;;;;;;4981310;28;20050;-60
2024/03/19 03:46:06;;;;;;;29.95;11.68;;;8.10;99.90;;;;;;4978885;28;20416;-60
2024/03/19 03:48:32;;;;;;;30.20;11.77;;;8.10;99.90;;;;;;4979279;28;20454;-60
2024/03/19 03:50:58;;;;;;;31.45;12.20;;;8.10;99.90;;;;;;4982387;28;20073;-60
2024/03/19 03:53:23;;;;;;;30.90;12.63;;;8.10;99.90;;;;;;4979746;28;20065;-60
2024/03/19 03:55:49;;;;;;;28.33;10.80;;;8.10;99.90;;;;;;4978152;28;20054;-60
2024/03/19 03:58:14;;;;;;;34.40;11.05;;;8.10;99.90;;;;;;4980782;28;20377;-60
2024/03/19 04:00:44;;;;;;;32.50;9.88;;;8.20;99.90;;;;;;4981698;28;20084;-60
2024/03/19 04:03:10;;;;;;;28.45;10.05;;;8.30;99.90;;;;;;4979608;28;20030;-60
2024/03/19 04:05:35;;;;;;;27.48;10.25;;;8.30;99.90;;;;;;4980493;28;20026;-60
2024/03/19 04:08:01;;;;;;;23.83;9.88;;;8.40;99.90;;;;;;4979908;28;20395;-62
2024/03/19 04:10:27;;;;;;;27.00;11.25;;;8.50;99.90;;;;;;4985425;28;20034;-62
2024/03/19 04:12:52;;;;;;;27.83;10.45;;;8.50;99.90;;;;;;4979445;28;20058;-62
2024/03/19 04:15:18;;;;;;;25.58;10.18;;;8.50;99.90;;;;;;4980595;28;20046;-63
2024/03/19 04:17:43;;;;;;;29.00;11.10;;;8.50;99.90;;;;;;4975061;28;20035;-62
2024/03/19 04:20:15;;;;;;;24.58;10.95;;;8.50;99.90;;;;;;4984202;28;20447;-62
2024/03/19 04:22:41;;;;;;;24.23;11.02;;;8.50;99.90;;;;;;4978708;28;20462;-62
2024/03/19 04:25:08;;;;;;;30.48;11.85;;;8.40;99.90;;;;;;4980905;28;20023;-62
2024/03/19 04:27:34;;;;;;;27.35;10.52;;;8.40;99.90;;;;;;4980612;28;20856;-62
2024/03/19 04:30:00;;;;;;;24.58;11.27;;;8.30;99.90;;;;;;4979841;28;20038;-62
2024/03/19 04:32:26;;;;;;;28.95;10.85;;;8.30;99.90;;;;;;4981295;28;20092;-62
2024/03/19 04:34:51;;;;;;;26.65;11.02;;;8.20;99.90;;;;;;4980211;28;20033;-62
2024/03/19 04:37:17;;;;;;;34.50;12.10;;;8.10;99.90;;;;;;4989599;28;20023;-62
2024/03/19 04:39:42;;;;;;;31.23;11.00;;;8.00;99.90;;;;;;4984231;28;20061;-61
2024/03/19 04:42:15;;;;;;;28.83;11.55;;;8.00;99.90;;;;;;4980301;28;20126;-62
2024/03/19 04:44:41;;;;;;;27.52;11.20;;;8.00;99.90;;;;;;4979196;28;20033;-63
2024/03/19 04:47:07;;;;;;;28.83;11.85;;;7.90;99.90;;;;;;4981506;28;20697;-62
2024/03/19 04:49:33;;;;;;;29.95;11.70;;;8.00;99.90;;;;;;4994119;28;20493;-62
2024/03/19 04:51:58;;;;;;;32.38;11.95;;;7.90;99.90;;;;;;4979419;28;20030;-62
2024/03/19 04:54:24;;;;;;;25.77;10.75;;;7.80;99.90;;;;;;4979758;28;20038;-62
2024/03/19 04:56:50;;;;;;;25.33;10.32;;;7.90;99.90;;;;;;4980095;28;20504;-63
2024/03/19 04:59:15;;;;;;;29.35;11.32;;;7.90;99.90;;;;;;4982120;28;20494;-62
2024/03/19 05:01:41;;;;;;;33.15;11.60;;;8.00;99.90;;;;;;4982222;28;20030;-62
2024/03/19 05:04:06;;;;;;;32.28;11.30;;;8.10;99.90;;;;;;4983748;28;20023;-63
2024/03/19 05:06:32;;;;;;;29.38;12.45;;;8.10;99.90;;;;;;4984123;28;20465;-62
2024/03/19 05:08:58;;;;;;;26.23;11.07;;;8.10;99.90;;;;;;4984052;28;20013;-62
2024/03/19 05:11:23;;;;;;;35.55;11.50;;;8.20;99.90;;;;;;4979999;28;20026;-62
2024/03/19 05:13:49;;;;;;;33.08;10.55;;;8.20;99.90;;;;;;4984751;28;20116;-63
2024/03/19 05:16:15;;;;;;;30.90;11.73;;;8.20;99.90;;;;;;4977487;28;20715;-62
2024/03/19 05:18:43;;;;;;;24.00;10.02;;;8.20;99.90;;;;;;4977433;28;20022;-63
2024/03/19 05:21:08;;;;;;;32.60;10.55;;;8.20;99.90;;;;;;4979622;28;20054;-62
2024/03/19 05:23:34;;;;;;;26.42;10.25;;;8.20;99.90;;;;;;4984157;28;20014;-62
2024/03/19 05:26:01;;;;;;;25.65;10.80;;;8.20;99.90;;;;;;4981735;28;20393;-63
2024/03/19 05:28:27;;;;;;;27.90;11.40;;;8.20;99.90;;;;;;4982408;28;20486;-63
2024/03/19 05:30:53;;;;;;;28.30;10.80;;;8.20;99.90;;;;;;4997601;28;20106;-63
2024/03/19 05:33:19;;;;;;;26.13;10.68;;;8.30;99.90;;;;;;4987591;28;20484;-63
2024/03/19 05:35:45;;;;;;;23.77;10.07;;;8.20;99.90;;;;;;4987934;28;20162;-63
2024/03/19 05:38:11;;;;;;;33.97;10.38;;;8.10;99.90;;;;;;4978176;28;20067;-63
2024/03/19 05:40:37;;;;;;;28.17;11.65;;;8.00;99.90;;;;;;4991621;28;20126;-63
2024/03/19 05:43:05;;;;;;;27.08;11.40;;;8.00;99.90;;;;;;4984520;28;20019;-62
2024/03/19 05:45:31;;;;;;;23.50;10.32;;;8.00;99.90;;;;;;4980751;28;20478;-63
2024/03/19 05:47:57;;;;;;;24.05;9.57;;;8.00;99.90;;;;;;4981906;28;20027;-63
2024/03/19 05:50:23;;;;;;;29.23;11.40;;;8.00;99.90;;;;;;4984917;28;20023;-62
2024/03/19 05:52:49;;;;;;;27.90;10.88;;;8.00;99.90;;;;;;4977811;28;20041;-64
2024/03/19 05:55:14;;;;;;;27.52;11.50;;;8.00;99.90;;;;;;4979975;28;20647;-63
2024/03/19 05:57:40;;;;;;;33.97;11.32;;;8.00;99.90;;;;;;5033895;28;20031;-63
2024/03/19 06:00:06;;;;;;;27.08;11.65;;;8.00;99.90;;;;;;4994033;28;20027;-63
2024/03/19 06:02:32;;;;;;;30.05;11.85;;;7.90;99.90;;;;;;4973689;28;20193;-63
2024/03/19 06:04:58;;;;;;;28.75;11.25;;;7.90;99.90;;;;;;4977012;28;20113;-63
2024/03/19 06:07:23;;;;;;;32.03;11.52;;;7.90;99.90;;;;;;4971416;28;20033;-63
2024/03/19 06:09:49;;;;;;;27.65;10.88;;;7.90;99.90;;;;;;4968763;28;20019;-64
2024/03/19 06:12:15;;;;;;;27.67;11.55;;;8.00;99.90;;;;;;4974192;28;20313;-65
2024/03/19 06:14:40;;;;;;;29.05;11.27;;;7.90;99.90;;;;;;4970411;28;20107;-64
2024/03/19 06:17:06;;;;;;;29.85;11.32;;;8.10;99.90;;;;;;4974204;28;20073;-64
2024/03/19 06:19:35;;;;;;;26.10;11.25;;;8.10;99.90;;;;;;4968252;28;20117;-64
2024/03/19 06:22:01;;;;;;;26.58;10.50;;;8.10;99.90;;;;;;4976584;28;20045;-64
2024/03/19 06:24:27;;;;;;;29.08;11.40;;;8.20;99.90;;;;;;4971961;28;20014;-64
2024/03/19 06:26:53;;;;;;;25.40;10.35;;;8.30;99.90;;;;;;4971407;28;20100;-64
2024/03/19 06:29:19;;;;;;;28.65;10.85;;;8.40;99.90;;;;;;4970892;28;20080;-64
2024/03/19 06:31:44;;;;;;;26.80;11.50;;;8.50;99.90;;;;;;4975601;28;20022;-63
2024/03/19 06:34:10;;;;;;;31.63;12.75;;;8.60;99.90;;;;;;4973401;28;20023;-63
2024/03/19 06:36:36;;;;;;;28.20;11.73;;;8.70;99.90;;;;;;4977520;28;20047;-63
2024/03/19 06:39:03;;;;;;;27.55;11.55;;;8.70;99.90;;;;;;4978135;28;20022;-63
2024/03/19 06:41:31;;;;;;;30.27;11.32;;;8.70;99.90;;;;;;4974688;28;20023;-63
2024/03/19 06:43:57;;;;;;;27.27;11.10;;;8.80;99.90;;;;;;4975888;28;20053;-62
2024/03/19 06:46:22;;;;;;;29.33;10.95;;;8.90;99.90;;;;;;4968101;28;20030;-63
2024/03/19 06:48:48;;;;;;;27.95;10.55;;;9.00;99.90;;;;;;4983609;28;20407;-63
2024/03/19 06:51:14;;;;;;;23.13;10.63;;;9.00;99.90;;;;;;4984108;28;20022;-62
2024/03/19 06:53:40;;;;;;;31.60;10.20;;;9.20;99.90;;;;;;4987085;28;20026;-62
2024/03/19 06:56:09;;;;;;;25.45;10.45;;;9.20;99.90;;;;;;4979277;28;20113;-63
2024/03/19 06:58:36;;;;;;;29.37;9.03;;;9.30;99.90;;;;;;4976564;28;20419;-63
2024/03/19 07:01:03;;;;;;;30.35;10.20;;;9.30;99.90;;;;;;4977779;28;20026;-61
2024/03/19 07:03:28;;;;;;;23.92;9.10;;;9.40;99.90;;;;;;4970965;28;20038;-61
2024/03/19 07:05:54;;;;;;;25.08;10.25;;;9.50;99.90;;;;;;4980069;28;20030;-61
2024/03/19 07:08:20;;;;;;;24.27;10.07;;;9.50;99.90;;;;;;4975439;28;20469;-62
2024/03/19 07:10:47;;;;;;;23.92;9.52;;;9.50;99.90;;;;;;4973138;28;20079;-61
2024/03/19 07:13:12;;;;;;;25.13;9.85;;;9.50;99.90;;;;;;4974445;28;20031;-61
2024/03/19 07:15:38;;;;;;;24.45;10.30;;;9.50;99.90;;;;;;4974888;28;20043;-62
2024/03/19 07:18:05;;;;;;;29.35;10.55;;;9.60;99.90;;;;;;4971131;28;20461;-63
2024/03/19 07:20:31;;;;;;;27.33;10.90;;;9.60;99.90;;;;;;4976558;28;20097;-62
2024/03/19 07:22:58;;;;;;;26.23;10.50;;;9.60;99.90;;;;;;4974716;28;20386;-62
2024/03/19 07:25:24;;;;;;;25.08;10.13;;;9.60;99.90;;;;;;4970521;28;20042;-62
2024/03/19 07:27:50;;;;;;;25.35;10.38;;;9.70;99.90;;;;;;4975464;28;20033;-62
2024/03/19 07:30:17;;;;;;;24.05;9.45;;;9.90;99.90;;;;;;4978625;28;20117;-63
2024/03/19 07:32:44;;;;;;;21.25;9.45;;;9.90;99.90;;;;;;4977732;28;20104;-63
2024/03/19 07:35:10;;;;;;;20.63;8.82;;;10.10;99.90;;;;;;4975308;28;20030;-63
2024/03/19 07:37:37;;;;;;;23.92;8.68;;;10.20;99.90;;;;;;5014008;28;20029;-62
2024/03/19 07:40:10;;;;;;;23.58;8.85;;;10.40;99.90;;;;;;4976275;28;20116;-61
2024/03/19 07:42:37;;;;;;;20.77;8.20;;;10.60;99.90;;;;;;4970592;28;20644;-61
2024/03/19 07:45:04;;;;;;;20.02;9.00;;;10.80;99.90;;;;;;4977394;28;20043;-62
2024/03/19 07:47:30;;;;;;;22.63;8.88;;;10.90;99.90;;;;;;4975915;28;20490;-61
2024/03/19 07:49:55;;;;;;;18.35;8.45;;;11.00;99.90;;;;;;5003800;28;20091;-60
2024/03/19 07:52:21;;;;;;;24.67;8.82;;;11.10;99.90;;;;;;4977934;28;20084;-60
2024/03/19 07:54:47;;;;;;;20.23;8.23;;;11.20;99.90;;;;;;4982273;28;20026;-61
2024/03/19 07:57:13;;;;;;;22.08;8.57;;;11.30;99.90;;;;;;4973107;28;20050;-61
2024/03/19 07:59:38;;;;;;;20.52;8.48;;;11.50;99.90;;;;;;4978155;28;20080;-61
2024/03/19 08:02:04;;;;;;;21.45;9.10;;;11.60;99.90;;;;;;4979298;28;20038;-61
2024/03/19 08:04:31;;;;;;;21.33;8.00;;;11.80;99.90;;;;;;4975192;28;20377;-61
2024/03/19 08:06:56;;;;;;;23.40;8.93;;;11.90;99.90;;;;;;4973436;28;20030;-61
2024/03/19 08:09:22;;;;;;;21.80;9.43;;;12.00;99.90;;;;;;4971267;28;20031;-60
2024/03/19 08:11:48;;;;;;;20.20;8.73;;;12.10;99.90;;;;;;4973365;28;20055;-61
2024/03/19 08:14:14;;;;;;;21.50;9.30;;;12.10;99.90;;;;;;4969242;28;20533;-61
2024/03/19 08:16:39;;;;;;;21.50;9.30;;;12.30;99.90;;;;;;4977833;28;20030;-61
2024/03/19 08:19:08;;;;;;;22.25;9.40;;;12.40;99.90;;;;;;4975148;28;20122;-61
2024/03/19 08:21:35;;;;;;;23.98;9.65;;;12.50;99.90;;;;;;4973924;28;20057;-62
2024/03/19 08:24:01;;;;;;;23.10;9.52;;;12.60;99.90;;;;;;4977171;28;20029;-61
2024/03/19 08:26:27;;;;;;;25.50;9.23;;;12.70;99.90;;;;;;4974229;28;20031;-61
2024/03/19 08:28:52;;;;;;;22.35;9.15;;;12.70;99.90;;;;;;4976144;28;20585;-61
2024/03/19 08:31:18;;;;;;;20.77;9.32;;;12.60;99.90;;;;;;4980123;28;20032;-61
2024/03/19 08:33:44;;;;;;;18.70;8.77;;;12.70;99.90;;;;;;4970018;28;20439;-61
2024/03/19 08:36:10;;;;;;;23.30;9.85;;;12.70;99.90;;;;;;4994610;28;20110;-62
2024/03/19 08:38:37;;;;;;;21.85;8.90;;;12.80;99.90;;;;;;4976552;28;20544;-61
2024/03/19 08:41:06;;;;;;;22.02;9.65;;;12.70;99.90;;;;;;4976708;28;20022;-62
2024/03/19 08:43:32;;;;;;;19.27;9.02;;;12.70;99.90;;;;;;4980496;28;20482;-62
2024/03/19 08:45:57;;;;;;;23.73;8.60;;;12.60;99.90;;;;;;4974973;28;20038;-61
2024/03/19 08:48:23;;;;;;;23.80;7.90;;;12.60;99.90;;;;;;4980507;28;20038;-61
2024/03/19 08:50:49;;;;;;;20.58;8.90;;;12.70;99.90;;;;;;4985935;28;20065;-62
2024/03/19 08:53:14;;;;;;;22.50;8.77;;;12.70;99.90;;;;;;4981163;28;20061;-62
2024/03/19 08:55:42;;;;;;;21.45;9.20;;;12.70;99.90;;;;;;4978264;28;20069;-62
2024/03/19 08:58:09;;;;;;;20.98;8.38;;;12.60;99.90;;;;;;4975842;28;20473;-61
2024/03/19 09:00:35;;;;;;;21.27;8.70;;;12.70;99.90;;;;;;4975064;28;20389;-60
2024/03/19 09:03:03;;;;;;;20.55;8.40;;;12.80;99.90;;;;;;4981731;28;20023;-60
2024/03/19 09:05:28;;;;;;;23.08;9.15;;;13.00;99.90;;;;;;4979538;28;20478;-60
2024/03/19 09:07:54;;;;;;;20.60;8.68;;;13.10;99.90;;;;;;4978843;28;20079;-59
2024/03/19 09:10:20;;;;;;;21.33;8.27;;;13.20;99.90;;;;;;4977270;28;20044;-60
2024/03/19 09:12:46;;;;;;;21.55;8.85;;;13.30;99.90;;;;;;4977878;28;20105;-60
2024/03/19 09:15:12;;;;;;;25.13;9.20;;;13.40;99.90;;;;;;4979652;28;20685;-60
2024/03/19 09:17:38;;;;;;;21.58;8.73;;;13.40;99.90;;;;;;4976627;28;20092;-60
2024/03/19 09:20:05;;;;;;;23.23;9.50;;;13.50;99.90;;;;;;4973673;28;20023;-60
2024/03/19 09:22:32;;;;;;;23.38;9.10;;;13.60;99.90;;;;;;4976913;28;20027;-60
2024/03/19 09:24:58;;;;;;;24.25;9.30;;;13.70;99.90;;;;;;4983476;28;20396;-60
2024/03/19 09:27:23;;;;;;;27.35;8.85;;;13.90;99.90;;;;;;4967202;28;20522;-60
2024/03/19 09:29:51;;;;;;;18.83;8.35;;;14.10;99.90;;;;;;4978257;28;20128;-60
2024/03/19 09:32:16;;;;;;;23.73;8.60;;;14.50;99.90;;;;;;4981240;28;20121;-60
2024/03/19 09:34:43;;;;;;;22.48;9.60;;;14.90;99.90;;;;;;4977132;28;20472;-60
2024/03/19 09:37:09;;;;;;;23.55;8.80;;;15.10;99.90;;;;;;4993073;28;20069;-60
2024/03/19 09:39:34;;;;;;;22.85;8.35;;;15.30;99.90;;;;;;4977840;28;20061;-61
2024/03/19 09:42:12;;;;;;;23.25;9.55;;;15.50;99.90;;;;;;4975269;28;20023;-61
2024/03/19 09:44:39;;;;;;;24.40;9.43;;;15.50;99.90;;;;;;4968954;28;20035;-61
2024/03/19 09:47:05;;;;;;;21.10;9.38;;;15.70;99.90;;;;;;4978121;28;20434;-61
2024/03/19 09:49:32;;;;;;;24.05;8.50;;;16.10;99.90;;;;;;4972846;28;20060;-61
2024/03/19 09:52:06;;;;;;;18.88;8.48;;;16.60;99.90;;;;;;4979280;28;20027;-61
2024/03/19 09:54:31;;;;;;;21.80;9.10;;;17.10;99.90;;;;;;4955937;28;20022;-61
2024/03/19 09:56:58;;;;;;;18.95;8.55;;;17.30;99.90;;;;;;4978903;28;20032;-61
2024/03/19 09:59:28;;;;;;;21.98;8.65;;;17.60;99.90;;;;;;4977075;28;20508;-63
2024/03/19 10:01:54;;;;;;;26.47;8.53;;;17.90;99.90;;;;;;4980718;28;20023;-64
2024/03/19 10:04:21;;;;;;;20.17;8.90;;;18.40;99.90;;;;;;4973814;28;20038;-63
2024/03/19 10:06:50;;;;;;;19.05;8.23;;;18.90;99.90;;;;;;4975853;28;20098;-63
2024/03/19 10:09:17;;;;;;;16.92;6.88;;;19.20;99.90;;;;;;4976648;28;20034;-64
2024/03/19 10:11:44;;;;;;;16.17;5.70;;;19.20;99.70;;;;;;4977676;28;20054;-64
2024/03/19 10:14:10;;;;;;;16.40;6.05;;;19.00;99.30;;;;;;4975948;28;20030;-64
2024/03/19 10:16:43;;;;;;;15.80;5.97;;;18.90;99.00;;;;;;4974873;28;20367;-63
2024/03/19 10:19:11;;;;;;;16.60;7.22;;;18.70;99.90;;;;;;4977155;28;20370;-64
2024/03/19 10:21:39;;;;;;;20.08;8.10;;;18.40;99.90;;;;;;4974359;28;20023;-64
2024/03/19 10:24:13;;;;;;;17.23;7.82;;;18.10;99.90;;;;;;4976453;28;20038;-63
2024/03/19 10:26:40;;;;;;;17.23;7.07;;;18.20;99.90;;;;;;4976642;28;20034;-63
2024/03/19 10:29:06;;;;;;;17.20;6.95;;;18.30;99.90;;;;;;4974737;28;20030;-63
2024/03/19 10:31:32;;;;;;;17.48;6.00;;;18.40;99.90;;;;;;4976791;28;20027;-64
2024/03/19 10:33:59;;;;;;;21.08;6.72;;;18.40;99.90;;;;;;4972169;28;20031;-63
2024/03/19 10:36:33;;;;;;;19.38;6.03;;;18.30;99.90;;;;;;4984808;28;20031;-63
2024/03/19 10:38:59;;;;;;;16.45;6.03;;;18.30;99.90;;;;;;4972314;28;20091;-64
2024/03/19 10:41:28;;;;;;;15.13;5.82;;;18.40;99.90;;;;;;4978957;28;20027;-64
2024/03/19 10:43:59;;;;;;;17.20;5.75;;;18.80;99.90;;;;;;4971513;28;20037;-63
2024/03/19 10:46:33;;;;;;;14.25;5.05;;;19.00;98.80;;;;;;4978990;28;20076;-64
2024/03/19 10:48:59;;;;;;;13.55;5.00;;;19.30;98.50;;;;;;4992749;28;20078;-63
2024/03/19 10:51:26;;;;;;;14.13;5.22;;;19.50;98.00;;;;;;4983295;28;20033;-64
2024/03/19 10:53:56;;;;;;;14.52;4.72;;;19.60;97.50;;;;;;4975688;28;20474;-64
2024/03/19 10:56:24;;;;;;;;;;;19.70;97.40;;;;;;4978821;28;20310;-64
2024/03/19 10:58:49;;;;;;;12.95;4.93;;;19.90;96.10;;;;;;4976750;28;20292;-63
2024/03/19 11:01:16;;;;;;;14.82;5.53;;;20.20;96.50;;;;;;4976625;28;20027;-64
2024/03/19 11:03:42;;;;;;;18.70;6.20;;;20.50;94.30;;;;;;4979126;28;20045;-63
2024/03/19 11:06:21;;;;;;;14.40;5.18;;;20.50;95.10;;;;;;4975152;28;20035;-64
2024/03/19 11:08:53;;;;;;;16.40;5.97;;;20.60;94.30;;;;;;4975359;28;20052;-64
2024/03/19 11:11:19;;;;;;;13.00;4.35;;;20.50;91.30;;;;;;4979774;28;20114;-63
2024/03/19 11:13:52;;;;;;;11.98;4.97;;;20.70;94.50;;;;;;4979303;28;20022;-63
2024/03/19 11:16:19;;;;;;;13.68;5.00;;;21.50;91.30;;;;;;4975347;28;20051;-64
2024/03/19 11:18:49;;;;;;;14.60;4.85;;;21.70;89.00;;;;;;4978884;28;20067;-64
2024/03/19 11:21:19;;;;;;;13.15;5.00;;;21.60;88.30;;;;;;4977626;28;20049;-64
2024/03/19 11:23:46;;;;;;;16.50;4.78;;;21.40;87.80;;;;;;4976028;28;20069;-63
2024/03/19 11:26:16;;;;;;;12.52;5.05;;;21.10;87.90;;;;;;4975748;28;20031;-64
2024/03/19 11:28:41;;;;;;;12.07;4.50;;;21.00;91.50;;;;;;4976737;28;20034;-63
2024/03/19 11:31:11;;;;;;;11.48;4.72;;;21.10;89.60;;;;;;4978787;28;20037;-64
2024/03/19 11:33:38;;;;;;;16.13;4.82;;;21.00;91.20;;;;;;4974969;28;20478;-64
2024/03/19 11:36:04;;;;;;;12.68;3.85;;;20.60;91.50;;;;;;4997690;28;20097;-63
2024/03/19 11:38:31;;;;;;;13.95;3.50;;;20.30;93.10;;;;;;4976452;28;20024;-64
2024/03/19 11:40:58;;;;;;;10.93;3.92;;;20.50;90.70;;;;;;4974914;28;20015;-63
2024/03/19 11:43:25;;;;;;;12.65;4.20;;;20.50;91.80;;;;;;4975060;28;20022;-64
2024/03/19 11:45:51;;;;;;;8.20;2.42;;;20.70;92.60;;;;;;4970556;28;20033;-64
2024/03/19 11:48:19;;;;;;;8.45;2.97;;;20.50;86.10;;;;;;4974057;28;20018;-63
2024/03/19 11:50:59;;;;;;;10.27;3.15;;;20.10;90.00;;;;;;4992019;28;20105;-64
2024/03/19 11:53:26;;;;;;;9.18;3.20;;;19.70;86.30;;;;;;4978433;28;20029;-64
2024/03/19 11:55:54;;;;;;;14.35;3.58;;;19.50;90.70;;;;;;4972701;28;20376;-64
2024/03/19 11:58:22;;;;;;;10.48;3.50;;;19.90;89.90;;;;;;4961998;28;20113;-64
2024/03/19 12:00:48;;;;;;;8.52;2.70;;;20.40;87.60;;;;;;4982235;28;20022;-64
2024/03/19 12:03:15;;;;;;;10.98;3.50;;;20.10;84.10;;;;;;4975115;28;20044;-63
2024/03/19 12:05:46;;;;;;;12.52;3.88;;;19.80;91.10;;;;;;4976703;28;20030;-63
2024/03/19 12:08:12;;;;;;;7.95;3.30;;;19.60;91.50;;;;;;4977968;28;20023;-64
2024/03/19 12:10:42;;;;;;;8.25;3.10;;;19.40;91.10;;;;;;4971968;28;20046;-64
2024/03/19 12:13:11;;;;;;;;;;;19.30;92.10;;;;;;4976663;28;20022;-64
2024/03/19 12:15:37;;;;;;;10.63;2.75;;;19.30;92.10;;;;;;4973610;28;19930;-64
2024/03/19 12:18:06;;;;;;;9.82;3.25;;;19.20;92.20;;;;;;4975688;28;20027;-64
2024/03/19 12:20:33;;;;;;;8.32;2.72;;;19.30;93.10;;;;;;4973664;28;20869;-64
2024/03/19 12:22:59;;;;;;;8.82;3.30;;;19.40;94.60;;;;;;4971426;28;20106;-64
2024/03/19 12:25:26;;;;;;;9.23;2.75;;;19.90;92.10;;;;;;4970069;28;20081;-64
2024/03/19 12:27:52;;;;;;;10.35;2.85;;;20.00;91.30;;;;;;4967904;28;20030;-64
2024/03/19 12:30:20;;;;;;;8.27;2.40;;;19.70;91.90;;;;;;4976295;28;20030;-64
2024/03/19 12:35:33;;;;;;;5.47;1.80;;;19.00;94.00;;;;;;4977140;28;20034;-64
2024/03/19 12:38:02;;;;;;;7.25;2.35;;;18.90;94.00;;;;;;4974428;28;20018;-64